Time;durP1;ratioP1;P1;durP2;ratioP2;P2;SDS_P1;SDS_P2;PMS_P1;PMS_P2;Temp;Humidity;BMP_temperature;BMP_pressure;BME280_temperature;BME280_humidity;BME280_pressure;Samples;Min_cycle;Max_cycle;Signal;HPM_P1;HPM_P2
2023/02/05 00:00:00;;;;;;;1.6;1.6;;;;;;;8.1;100.0;103460;;;;
2023/02/05 00:01:00;;;;;;;1.6;1.6;;;;;;;8.2;100.0;103450;;;;
2023/02/05 00:02:01;;;;;;;1.6;1.6;;;;;;;8.2;100.0;103450;;;;
2023/02/05 00:03:01;;;;;;;1.6;1.6;;;;;;;8.0;100.0;103470;;;;
2023/02/05 00:04:00;;;;;;;1.6;1.6;;;;;;;8.0;100.0;103470;;;;
2023/02/05 00:05:00;;;;;;;1.6;1.6;;;;;;;8.0;100.0;103460;;;;
2023/02/05 00:06:00;;;;;;;1.6;1.6;;;;;;;8.0;100.0;103460;;;;
2023/02/05 00:07:00;;;;;;;1.6;1.6;;;;;;;8.0;100.0;103460;;;;
2023/02/05 00:08:01;;;;;;;1.6;1.6;;;;;;;8.0;100.0;103460;;;;
2023/02/05 00:09:00;;;;;;;1.6;1.6;;;;;;;8.0;100.0;103470;;;;
2023/02/05 00:10:01;;;;;;;1.6;1.6;;;;;;;8.0;100.0;103470;;;;
2023/02/05 00:11:08;;;;;;;1.6;1.6;;;;;;;8.0;100.0;103470;;;;
2023/02/05 00:12:01;;;;;;;1.6;1.6;;;;;;;8.0;100.0;103470;;;;
2023/02/05 00:13:00;;;;;;;1.3;1.3;;;;;;;8.0;100.0;103460;;;;
2023/02/05 00:14:00;;;;;;;1.3;1.3;;;;;;;8.0;100.0;103460;;;;
2023/02/05 00:15:00;;;;;;;1.3;1.3;;;;;;;8.0;100.0;103450;;;;
2023/02/05 00:16:05;;;;;;;1.3;1.3;;;;;;;8.0;100.0;103450;;;;
2023/02/05 00:17:00;;;;;;;1.3;1.3;;;;;;;8.0;100.0;103450;;;;
2023/02/05 00:18:01;;;;;;;1.3;1.3;;;;;;;8.0;100.0;103450;;;;
2023/02/05 00:19:00;;;;;;;1.3;1.3;;;;;;;8.0;100.0;103450;;;;
2023/02/05 00:20:00;;;;;;;1.3;1.3;;;;;;;8.0;100.0;103450;;;;
2023/02/05 00:21:00;;;;;;;1.3;1.3;;;;;;;8.1;100.0;103440;;;;
2023/02/05 00:22:00;;;;;;;1.3;1.3;;;;;;;8.1;100.0;103440;;;;
2023/02/05 00:23:01;;;;;;;1.3;1.3;;;;;;;8.0;100.0;103440;;;;
2023/02/05 00:24:00;;;;;;;1.3;1.3;;;;;;;8.0;100.0;103440;;;;
2023/02/05 00:25:00;;;;;;;1.3;1.3;;;;;;;8.1;100.0;103440;;;;
2023/02/05 00:26:01;;;;;;;1.3;1.3;;;;;;;8.1;100.0;103440;;;;
2023/02/05 00:27:00;;;;;;;1.3;1.3;;;;;;;8.0;100.0;103440;;;;
2023/02/05 00:28:00;;;;;;;1.3;1.3;;;;;;;8.0;100.0;103440;;;;
2023/02/05 00:29:01;;;;;;;1.3;1.3;;;;;;;8.1;100.0;103430;;;;
2023/02/05 00:30:01;;;;;;;1.3;1.3;;;;;;;8.1;100.0;103430;;;;
2023/02/05 00:31:06;;;;;;;1.3;1.3;;;;;;;8.0;100.0;103420;;;;
2023/02/05 00:32:00;;;;;;;1.3;1.3;;;;;;;8.0;100.0;103420;;;;
2023/02/05 00:33:00;;;;;;;1.4;1.4;;;;;;;8.0;100.0;103420;;;;
2023/02/05 00:34:00;;;;;;;1.4;1.4;;;;;;;8.0;100.0;103420;;;;
2023/02/05 00:35:00;;;;;;;1.4;1.4;;;;;;;8.1;100.0;103420;;;;
2023/02/05 00:36:00;;;;;;;1.4;1.4;;;;;;;8.1;100.0;103420;;;;
2023/02/05 00:37:00;;;;;;;1.4;1.4;;;;;;;8.1;100.0;103410;;;;
2023/02/05 00:38:00;;;;;;;1.4;1.4;;;;;;;8.1;100.0;103410;;;;
2023/02/05 00:39:00;;;;;;;1.4;1.4;;;;;;;8.1;100.0;103410;;;;
2023/02/05 00:40:00;;;;;;;1.4;1.4;;;;;;;8.1;100.0;103410;;;;
2023/02/05 00:41:01;;;;;;;1.4;1.4;;;;;;;8.1;100.0;103410;;;;
2023/02/05 00:42:00;;;;;;;1.4;1.4;;;;;;;8.1;100.0;103410;;;;
2023/02/05 00:43:00;;;;;;;1.4;1.4;;;;;;;8.0;100.0;103410;;;;
2023/02/05 00:44:00;;;;;;;1.4;1.4;;;;;;;8.0;100.0;103410;;;;
2023/02/05 00:45:00;;;;;;;1.4;1.4;;;;;;;8.1;100.0;103410;;;;
2023/02/05 00:46:00;;;;;;;1.4;1.4;;;;;;;8.1;100.0;103410;;;;
2023/02/05 00:47:00;;;;;;;1.4;1.4;;;;;;;8.1;100.0;103410;;;;
2023/02/05 00:48:02;;;;;;;1.4;1.4;;;;;;;8.1;100.0;103410;;;;
2023/02/05 00:49:00;;;;;;;1.4;1.4;;;;;;;8.1;100.0;103410;;;;
2023/02/05 00:50:00;;;;;;;1.4;1.4;;;;;;;8.1;100.0;103410;;;;
2023/02/05 00:51:00;;;;;;;1.4;1.4;;;;;;;8.1;100.0;103410;;;;
2023/02/05 00:52:00;;;;;;;1.4;1.4;;;;;;;8.1;100.0;103410;;;;
2023/02/05 00:53:00;;;;;;;1.6;1.6;;;;;;;8.1;100.0;103400;;;;
2023/02/05 00:54:00;;;;;;;1.6;1.6;;;;;;;8.1;100.0;103400;;;;
2023/02/05 00:55:00;;;;;;;1.6;1.6;;;;;;;8.1;100.0;103390;;;;
2023/02/05 00:56:01;;;;;;;1.6;1.6;;;;;;;8.1;100.0;103390;;;;
2023/02/05 00:57:00;;;;;;;1.6;1.6;;;;;;;8.1;100.0;103400;;;;
2023/02/05 00:58:00;;;;;;;1.6;1.6;;;;;;;8.1;100.0;103400;;;;
2023/02/05 00:59:01;;;;;;;1.6;1.6;;;;;;;8.1;100.0;103400;;;;
2023/02/05 01:00:00;;;;;;;1.6;1.6;;;;;;;8.1;100.0;103400;;;;
2023/02/05 01:01:00;;;;;;;1.6;1.6;;;;;;;8.1;100.0;103400;;;;
2023/02/05 01:02:00;;;;;;;1.6;1.6;;;;;;;8.1;100.0;103400;;;;
2023/02/05 01:03:00;;;;;;;1.6;1.6;;;;;;;8.1;100.0;103400;;;;
2023/02/05 01:04:00;;;;;;;1.6;1.6;;;;;;;8.1;100.0;103400;;;;
2023/02/05 01:05:00;;;;;;;1.6;1.6;;;;;;;8.1;100.0;103400;;;;
2023/02/05 01:06:02;;;;;;;1.6;1.6;;;;;;;8.1;100.0;103400;;;;
2023/02/05 01:07:00;;;;;;;1.6;1.6;;;;;;;8.1;100.0;103400;;;;
2023/02/05 01:08:00;;;;;;;1.6;1.6;;;;;;;8.1;100.0;103400;;;;
2023/02/05 01:09:00;;;;;;;1.6;1.6;;;;;;;8.1;100.0;103410;;;;
2023/02/05 01:10:00;;;;;;;1.6;1.6;;;;;;;8.1;100.0;103410;;;;
2023/02/05 01:11:04;;;;;;;1.6;1.6;;;;;;;8.1;100.0;103410;;;;
2023/02/05 01:12:00;;;;;;;1.6;1.6;;;;;;;8.1;100.0;103410;;;;
2023/02/05 01:13:00;;;;;;;1.3;1.3;;;;;;;8.1;100.0;103410;;;;
2023/02/05 01:14:00;;;;;;;1.3;1.3;;;;;;;8.1;100.0;103410;;;;
2023/02/05 01:15:01;;;;;;;1.3;1.3;;;;;;;8.1;100.0;103400;;;;
2023/02/05 01:16:00;;;;;;;1.3;1.3;;;;;;;8.1;100.0;103400;;;;
2023/02/05 01:17:00;;;;;;;1.3;1.3;;;;;;;8.1;100.0;103400;;;;
2023/02/05 01:18:00;;;;;;;1.3;1.3;;;;;;;8.1;100.0;103400;;;;
2023/02/05 01:19:00;;;;;;;1.3;1.3;;;;;;;8.2;100.0;103400;;;;
2023/02/05 01:20:00;;;;;;;1.3;1.3;;;;;;;8.2;100.0;103400;;;;
2023/02/05 01:21:00;;;;;;;1.3;1.3;;;;;;;8.1;100.0;103390;;;;
2023/02/05 01:22:00;;;;;;;1.3;1.3;;;;;;;8.1;100.0;103390;;;;
2023/02/05 01:23:00;;;;;;;1.3;1.3;;;;;;;8.1;100.0;103390;;;;
2023/02/05 01:24:00;;;;;;;1.3;1.3;;;;;;;8.1;100.0;103390;;;;
2023/02/05 01:25:00;;;;;;;1.3;1.3;;;;;;;8.1;100.0;103400;;;;
2023/02/05 01:26:00;;;;;;;1.3;1.3;;;;;;;8.1;100.0;103400;;;;
2023/02/05 01:27:00;;;;;;;1.3;1.3;;;;;;;8.1;100.0;103410;;;;
2023/02/05 01:28:00;;;;;;;1.3;1.3;;;;;;;8.1;100.0;103410;;;;
2023/02/05 01:29:00;;;;;;;1.3;1.3;;;;;;;8.1;100.0;103420;;;;
2023/02/05 01:30:00;;;;;;;1.3;1.3;;;;;;;8.1;100.0;103420;;;;
2023/02/05 01:31:00;;;;;;;1.3;1.3;;;;;;;8.1;100.0;103410;;;;
2023/02/05 01:32:00;;;;;;;1.3;1.3;;;;;;;8.1;100.0;103410;;;;
2023/02/05 01:33:00;;;;;;;1.5;1.5;;;;;;;8.1;100.0;103420;;;;
2023/02/05 01:34:00;;;;;;;1.5;1.5;;;;;;;8.1;100.0;103420;;;;
2023/02/05 01:35:00;;;;;;;1.5;1.5;;;;;;;8.1;100.0;103420;;;;
2023/02/05 01:36:00;;;;;;;1.5;1.5;;;;;;;8.1;100.0;103420;;;;
2023/02/05 01:37:00;;;;;;;1.5;1.5;;;;;;;8.1;100.0;103420;;;;
2023/02/05 01:38:00;;;;;;;1.5;1.5;;;;;;;8.1;100.0;103420;;;;
2023/02/05 01:39:00;;;;;;;1.5;1.5;;;;;;;8.1;100.0;103420;;;;
2023/02/05 01:40:00;;;;;;;1.5;1.5;;;;;;;8.1;100.0;103420;;;;
2023/02/05 01:41:00;;;;;;;1.5;1.5;;;;;;;8.1;100.0;103420;;;;
2023/02/05 01:42:00;;;;;;;1.5;1.5;;;;;;;8.1;100.0;103420;;;;
2023/02/05 01:43:00;;;;;;;1.5;1.5;;;;;;;8.1;100.0;103420;;;;
2023/02/05 01:44:04;;;;;;;1.5;1.5;;;;;;;8.1;100.0;103420;;;;
2023/02/05 01:45:10;;;;;;;1.5;1.5;;;;;;;8.1;100.0;103420;;;;
2023/02/05 01:46:10;;;;;;;1.5;1.5;;;;;;;8.1;100.0;103420;;;;
2023/02/05 01:47:00;;;;;;;1.5;1.5;;;;;;;8.1;100.0;103420;;;;
2023/02/05 01:48:01;;;;;;;1.5;1.5;;;;;;;8.1;100.0;103420;;;;
2023/02/05 01:49:01;;;;;;;1.5;1.5;;;;;;;8.0;100.0;103420;;;;
2023/02/05 01:50:00;;;;;;;1.5;1.5;;;;;;;8.0;100.0;103420;;;;
2023/02/05 01:51:03;;;;;;;1.5;1.5;;;;;;;8.1;100.0;103420;;;;
2023/02/05 01:52:06;;;;;;;1.5;1.5;;;;;;;8.1;100.0;103420;;;;
2023/02/05 01:53:02;;;;;;;1.7;1.7;;;;;;;8.1;100.0;103420;;;;
2023/02/05 01:54:00;;;;;;;1.7;1.7;;;;;;;8.1;100.0;103420;;;;
2023/02/05 01:55:01;;;;;;;1.7;1.7;;;;;;;8.0;100.0;103420;;;;
2023/02/05 01:56:04;;;;;;;1.7;1.7;;;;;;;8.0;100.0;103420;;;;
2023/02/05 01:57:02;;;;;;;1.7;1.7;;;;;;;8.1;100.0;103420;;;;
2023/02/05 01:58:01;;;;;;;1.7;1.7;;;;;;;8.1;100.0;103420;;;;
2023/02/05 01:59:04;;;;;;;1.7;1.7;;;;;;;8.1;100.0;103420;;;;
2023/02/05 02:00:00;;;;;;;1.7;1.7;;;;;;;8.1;100.0;103420;;;;
2023/02/05 02:01:00;;;;;;;1.7;1.7;;;;;;;8.1;100.0;103420;;;;
2023/02/05 02:02:05;;;;;;;1.7;1.7;;;;;;;8.1;100.0;103420;;;;
2023/02/05 02:03:00;;;;;;;1.7;1.7;;;;;;;8.1;100.0;103420;;;;
2023/02/05 02:04:03;;;;;;;1.7;1.7;;;;;;;8.1;100.0;103420;;;;
2023/02/05 02:05:06;;;;;;;1.7;1.7;;;;;;;8.0;100.0;103420;;;;
2023/02/05 02:06:03;;;;;;;1.7;1.7;;;;;;;8.0;100.0;103420;;;;
2023/02/05 02:07:01;;;;;;;1.7;1.7;;;;;;;8.0;100.0;103420;;;;
2023/02/05 02:08:01;;;;;;;1.7;1.7;;;;;;;8.0;100.0;103420;;;;
2023/02/05 02:09:01;;;;;;;1.7;1.7;;;;;;;8.1;100.0;103420;;;;
2023/02/05 02:10:01;;;;;;;1.7;1.7;;;;;;;8.1;100.0;103420;;;;
2023/02/05 02:11:03;;;;;;;1.7;1.7;;;;;;;8.0;100.0;103410;;;;
2023/02/05 02:12:01;;;;;;;1.7;1.7;;;;;;;8.0;100.0;103410;;;;
2023/02/05 02:13:01;;;;;;;1.2;1.2;;;;;;;8.0;100.0;103410;;;;
2023/02/05 02:14:01;;;;;;;1.2;1.2;;;;;;;8.0;100.0;103410;;;;
2023/02/05 02:15:03;;;;;;;1.2;1.2;;;;;;;7.9;100.0;103400;;;;
2023/02/05 02:16:01;;;;;;;1.2;1.2;;;;;;;7.9;100.0;103400;;;;
2023/02/05 02:17:01;;;;;;;1.2;1.2;;;;;;;7.9;100.0;103390;;;;
2023/02/05 02:19:02;;;;;;;1.2;1.2;;;;;;;8.0;100.0;103400;;;;
2023/02/05 02:20:02;;;;;;;1.2;1.2;;;;;;;8.0;100.0;103400;;;;
2023/02/05 02:21:01;;;;;;;1.2;1.2;;;;;;;8.0;100.0;103400;;;;
2023/02/05 02:22:01;;;;;;;1.2;1.2;;;;;;;8.0;100.0;103400;;;;
2023/02/05 02:23:06;;;;;;;1.2;1.2;;;;;;;7.9;100.0;103410;;;;
2023/02/05 02:24:10;;;;;;;1.2;1.2;;;;;;;7.9;100.0;103410;;;;
2023/02/05 02:25:06;;;;;;;1.2;1.2;;;;;;;8.0;100.0;103410;;;;
2023/02/05 02:26:10;;;;;;;1.2;1.2;;;;;;;8.0;100.0;103410;;;;
2023/02/05 02:27:10;;;;;;;1.2;1.2;;;;;;;7.9;100.0;103410;;;;
2023/02/05 02:28:08;;;;;;;1.2;1.2;;;;;;;7.9;100.0;103410;;;;
2023/02/05 02:29:02;;;;;;;1.2;1.2;;;;;;;7.9;100.0;103400;;;;
2023/02/05 02:30:10;;;;;;;1.2;1.2;;;;;;;7.9;100.0;103400;;;;
2023/02/05 02:31:05;;;;;;;1.2;1.2;;;;;;;7.8;100.0;103400;;;;
2023/02/05 02:32:05;;;;;;;1.2;1.2;;;;;;;7.8;100.0;103400;;;;
2023/02/05 02:33:10;;;;;;;1.2;1.2;;;;;;;7.9;100.0;103390;;;;
2023/02/05 02:34:06;;;;;;;1.2;1.2;;;;;;;7.9;100.0;103390;;;;
2023/02/05 02:35:11;;;;;;;1.2;1.2;;;;;;;7.9;100.0;103380;;;;
2023/02/05 02:36:06;;;;;;;1.2;1.2;;;;;;;7.9;100.0;103380;;;;
2023/02/05 02:37:07;;;;;;;1.2;1.2;;;;;;;7.9;100.0;103390;;;;
2023/02/05 02:38:10;;;;;;;1.2;1.2;;;;;;;7.9;100.0;103390;;;;
2023/02/05 02:39:05;;;;;;;1.2;1.2;;;;;;;7.9;100.0;103380;;;;
2023/02/05 02:40:05;;;;;;;1.2;1.2;;;;;;;7.9;100.0;103380;;;;
2023/02/05 02:41:05;;;;;;;1.2;1.2;;;;;;;7.9;100.0;103380;;;;
2023/02/05 02:42:03;;;;;;;1.2;1.2;;;;;;;7.9;100.0;103380;;;;
2023/02/05 02:43:10;;;;;;;1.2;1.2;;;;;;;7.9;100.0;103380;;;;
2023/02/05 02:44:10;;;;;;;1.2;1.2;;;;;;;7.9;100.0;103380;;;;
2023/02/05 02:45:03;;;;;;;1.2;1.2;;;;;;;7.9;100.0;103370;;;;
2023/02/05 02:46:04;;;;;;;1.2;1.2;;;;;;;7.9;100.0;103370;;;;
2023/02/05 02:47:03;;;;;;;1.2;1.2;;;;;;;7.9;100.0;103370;;;;
2023/02/05 02:48:02;;;;;;;1.2;1.2;;;;;;;7.9;100.0;103370;;;;
2023/02/05 02:49:03;;;;;;;1.2;1.2;;;;;;;7.8;100.0;103360;;;;
2023/02/05 02:50:03;;;;;;;1.2;1.2;;;;;;;7.8;100.0;103360;;;;
2023/02/05 02:51:01;;;;;;;1.2;1.2;;;;;;;7.8;100.0;103360;;;;
2023/02/05 02:52:02;;;;;;;1.2;1.2;;;;;;;7.8;100.0;103360;;;;
2023/02/05 02:53:03;;;;;;;1.5;1.5;;;;;;;7.8;100.0;103360;;;;
2023/02/05 02:54:03;;;;;;;1.5;1.5;;;;;;;7.8;100.0;103360;;;;
2023/02/05 02:55:05;;;;;;;1.5;1.5;;;;;;;7.8;100.0;103370;;;;
2023/02/05 02:56:02;;;;;;;1.5;1.5;;;;;;;7.8;100.0;103370;;;;
2023/02/05 02:57:02;;;;;;;1.5;1.5;;;;;;;7.8;100.0;103380;;;;
2023/02/05 02:58:02;;;;;;;1.5;1.5;;;;;;;7.8;100.0;103380;;;;
2023/02/05 02:59:05;;;;;;;1.5;1.5;;;;;;;7.8;100.0;103380;;;;
2023/02/05 03:00:04;;;;;;;1.5;1.5;;;;;;;7.8;100.0;103380;;;;
2023/02/05 03:01:03;;;;;;;1.5;1.5;;;;;;;7.8;100.0;103380;;;;
2023/02/05 03:02:03;;;;;;;1.5;1.5;;;;;;;7.8;100.0;103380;;;;
2023/02/05 03:03:04;;;;;;;1.5;1.5;;;;;;;7.8;100.0;103380;;;;
2023/02/05 03:04:03;;;;;;;1.5;1.5;;;;;;;7.8;100.0;103380;;;;
2023/02/05 03:05:03;;;;;;;1.5;1.5;;;;;;;7.8;100.0;103370;;;;
2023/02/05 03:06:02;;;;;;;1.5;1.5;;;;;;;7.8;100.0;103370;;;;
2023/02/05 03:07:10;;;;;;;1.5;1.5;;;;;;;7.7;100.0;103370;;;;
2023/02/05 03:08:05;;;;;;;1.5;1.5;;;;;;;7.7;100.0;103370;;;;
2023/02/05 03:09:06;;;;;;;1.5;1.5;;;;;;;7.8;100.0;103370;;;;
2023/02/05 03:10:05;;;;;;;1.5;1.5;;;;;;;7.8;100.0;103370;;;;
2023/02/05 03:11:02;;;;;;;1.5;1.5;;;;;;;7.7;100.0;103360;;;;
2023/02/05 03:12:00;;;;;;;1.8;1.8;;;;;;;7.7;100.0;103360;;;;
2023/02/05 03:13:00;;;;;;;1.8;1.8;;;;;;;7.7;100.0;103360;;;;
2023/02/05 03:14:00;;;;;;;1.8;1.8;;;;;;;7.7;100.0;103360;;;;
2023/02/05 03:15:01;;;;;;;1.8;1.8;;;;;;;7.7;100.0;103350;;;;
2023/02/05 03:16:01;;;;;;;1.8;1.8;;;;;;;7.7;100.0;103350;;;;
2023/02/05 03:17:00;;;;;;;1.8;1.8;;;;;;;7.7;100.0;103350;;;;
2023/02/05 03:18:00;;;;;;;1.8;1.8;;;;;;;7.7;100.0;103350;;;;
2023/02/05 03:19:02;;;;;;;1.8;1.8;;;;;;;7.7;100.0;103350;;;;
2023/02/05 03:20:05;;;;;;;1.8;1.8;;;;;;;7.7;100.0;103350;;;;
2023/02/05 03:21:04;;;;;;;1.8;1.8;;;;;;;7.7;100.0;103350;;;;
2023/02/05 03:22:02;;;;;;;1.8;1.8;;;;;;;7.7;100.0;103350;;;;
2023/02/05 03:23:00;;;;;;;1.8;1.8;;;;;;;7.8;100.0;103350;;;;
2023/02/05 03:24:00;;;;;;;1.8;1.8;;;;;;;7.8;100.0;103350;;;;
2023/02/05 03:25:01;;;;;;;1.8;1.8;;;;;;;7.8;100.0;103350;;;;
2023/02/05 03:26:00;;;;;;;1.8;1.8;;;;;;;7.8;100.0;103350;;;;
2023/02/05 03:27:00;;;;;;;1.8;1.8;;;;;;;7.7;100.0;103340;;;;
2023/02/05 03:28:00;;;;;;;1.8;1.8;;;;;;;7.7;100.0;103340;;;;
2023/02/05 03:29:02;;;;;;;1.8;1.8;;;;;;;7.7;100.0;103340;;;;
2023/02/05 03:30:01;;;;;;;1.8;1.8;;;;;;;7.7;100.0;103340;;;;
2023/02/05 03:31:07;;;;;;;1.8;1.8;;;;;;;7.7;100.0;103340;;;;
2023/02/05 03:32:10;;;;;;;2.0;2.0;;;;;;;7.7;100.0;103340;;;;
2023/02/05 03:33:10;;;;;;;2.0;2.0;;;;;;;7.7;100.0;103340;;;;
2023/02/05 03:34:10;;;;;;;2.0;2.0;;;;;;;7.7;100.0;103340;;;;
2023/02/05 03:35:07;;;;;;;2.0;2.0;;;;;;;7.7;100.0;103340;;;;
2023/02/05 03:36:00;;;;;;;2.0;2.0;;;;;;;7.7;100.0;103340;;;;
2023/02/05 03:37:09;;;;;;;2.0;2.0;;;;;;;7.7;100.0;103360;;;;
2023/02/05 03:38:00;;;;;;;2.0;2.0;;;;;;;7.7;100.0;103360;;;;
2023/02/05 03:39:10;;;;;;;2.0;2.0;;;;;;;7.6;100.0;103370;;;;
2023/02/05 03:40:01;;;;;;;2.0;2.0;;;;;;;7.6;100.0;103370;;;;
2023/02/05 03:41:09;;;;;;;2.0;2.0;;;;;;;7.6;100.0;103380;;;;
2023/02/05 03:42:10;;;;;;;2.0;2.0;;;;;;;7.6;100.0;103380;;;;
2023/02/05 03:43:10;;;;;;;2.0;2.0;;;;;;;7.7;100.0;103380;;;;
2023/02/05 03:44:07;;;;;;;2.0;2.0;;;;;;;7.7;100.0;103380;;;;
2023/02/05 03:45:10;;;;;;;2.0;2.0;;;;;;;7.6;100.0;103380;;;;
2023/02/05 03:46:10;;;;;;;2.0;2.0;;;;;;;7.6;100.0;103380;;;;
2023/02/05 03:47:04;;;;;;;2.0;2.0;;;;;;;7.6;100.0;103380;;;;
2023/02/05 03:48:10;;;;;;;2.0;2.0;;;;;;;7.6;100.0;103380;;;;
2023/02/05 03:49:05;;;;;;;2.0;2.0;;;;;;;7.6;100.0;103380;;;;
2023/02/05 03:50:10;;;;;;;2.0;2.0;;;;;;;7.6;100.0;103380;;;;
2023/02/05 03:51:10;;;;;;;2.0;2.0;;;;;;;7.6;100.0;103380;;;;
2023/02/05 03:52:06;;;;;;;2.0;2.0;;;;;;;7.6;100.0;103380;;;;
2023/02/05 03:53:06;;;;;;;2.0;2.0;;;;;;;7.6;100.0;103380;;;;
2023/02/05 03:54:00;;;;;;;2.0;2.0;;;;;;;7.6;100.0;103380;;;;
2023/02/05 03:55:11;;;;;;;2.0;2.0;;;;;;;7.6;100.0;103380;;;;
2023/02/05 03:56:06;;;;;;;2.0;2.0;;;;;;;7.6;100.0;103380;;;;
2023/02/05 03:57:00;;;;;;;2.0;2.0;;;;;;;7.6;100.0;103380;;;;
2023/02/05 03:58:05;;;;;;;2.0;2.0;;;;;;;7.6;100.0;103380;;;;
2023/02/05 03:59:01;;;;;;;2.0;2.0;;;;;;;7.5;100.0;103380;;;;
2023/02/05 04:00:01;;;;;;;2.0;2.0;;;;;;;7.5;100.0;103380;;;;
2023/02/05 04:01:01;;;;;;;2.0;2.0;;;;;;;7.5;100.0;103380;;;;
2023/02/05 04:02:03;;;;;;;2.0;2.0;;;;;;;7.5;100.0;103380;;;;
2023/02/05 04:03:00;;;;;;;2.0;2.0;;;;;;;7.5;100.0;103380;;;;
2023/02/05 04:04:00;;;;;;;2.0;2.0;;;;;;;7.5;100.0;103380;;;;
2023/02/05 04:05:01;;;;;;;2.0;2.0;;;;;;;7.6;100.0;103380;;;;
2023/02/05 04:06:00;;;;;;;2.0;2.0;;;;;;;7.6;100.0;103380;;;;
2023/02/05 04:07:01;;;;;;;2.0;2.0;;;;;;;7.6;100.0;103380;;;;
2023/02/05 04:08:00;;;;;;;2.0;2.0;;;;;;;7.6;100.0;103380;;;;
2023/02/05 04:09:00;;;;;;;2.0;2.0;;;;;;;7.6;100.0;103380;;;;
2023/02/05 04:10:00;;;;;;;2.0;2.0;;;;;;;7.6;100.0;103380;;;;
2023/02/05 04:11:00;;;;;;;2.0;2.0;;;;;;;7.5;100.0;103390;;;;
2023/02/05 04:12:00;;;;;;;1.7;1.7;;;;;;;7.5;100.0;103390;;;;
2023/02/05 04:13:00;;;;;;;1.7;1.7;;;;;;;7.5;100.0;103390;;;;
2023/02/05 04:14:00;;;;;;;1.7;1.7;;;;;;;7.5;100.0;103390;;;;
2023/02/05 04:15:00;;;;;;;1.7;1.7;;;;;;;7.5;100.0;103390;;;;
2023/02/05 04:16:00;;;;;;;1.7;1.7;;;;;;;7.5;100.0;103390;;;;
2023/02/05 04:17:00;;;;;;;1.7;1.7;;;;;;;7.6;100.0;103390;;;;
2023/02/05 04:18:00;;;;;;;1.7;1.7;;;;;;;7.6;100.0;103390;;;;
2023/02/05 04:19:00;;;;;;;1.7;1.7;;;;;;;7.4;100.0;103380;;;;
2023/02/05 04:20:00;;;;;;;1.7;1.7;;;;;;;7.4;100.0;103380;;;;
2023/02/05 04:21:00;;;;;;;1.7;1.7;;;;;;;7.5;100.0;103390;;;;
2023/02/05 04:22:00;;;;;;;1.7;1.7;;;;;;;7.5;100.0;103390;;;;
2023/02/05 04:23:00;;;;;;;1.7;1.7;;;;;;;7.4;100.0;103390;;;;
2023/02/05 04:24:00;;;;;;;1.7;1.7;;;;;;;7.4;100.0;103390;;;;
2023/02/05 04:25:00;;;;;;;1.7;1.7;;;;;;;7.5;100.0;103390;;;;
2023/02/05 04:26:00;;;;;;;1.7;1.7;;;;;;;7.5;100.0;103390;;;;
2023/02/05 04:27:00;;;;;;;1.7;1.7;;;;;;;7.4;100.0;103390;;;;
2023/02/05 04:28:00;;;;;;;1.7;1.7;;;;;;;7.4;100.0;103390;;;;
2023/02/05 04:29:00;;;;;;;1.7;1.7;;;;;;;7.4;100.0;103390;;;;
2023/02/05 04:30:00;;;;;;;1.7;1.7;;;;;;;7.4;100.0;103390;;;;
2023/02/05 04:31:00;;;;;;;1.7;1.7;;;;;;;7.4;100.0;103380;;;;
2023/02/05 04:32:00;;;;;;;2.0;2.0;;;;;;;7.4;100.0;103380;;;;
2023/02/05 04:33:00;;;;;;;2.0;2.0;;;;;;;7.4;100.0;103380;;;;
2023/02/05 04:34:00;;;;;;;2.0;2.0;;;;;;;7.4;100.0;103380;;;;
2023/02/05 04:35:00;;;;;;;2.0;2.0;;;;;;;7.4;100.0;103370;;;;
2023/02/05 04:36:00;;;;;;;2.0;2.0;;;;;;;7.4;100.0;103370;;;;
2023/02/05 04:37:01;;;;;;;2.0;2.0;;;;;;;7.4;100.0;103370;;;;
2023/02/05 04:38:00;;;;;;;2.0;2.0;;;;;;;7.4;100.0;103370;;;;
2023/02/05 04:39:00;;;;;;;2.0;2.0;;;;;;;7.3;100.0;103370;;;;
2023/02/05 04:40:00;;;;;;;2.0;2.0;;;;;;;7.3;100.0;103370;;;;
2023/02/05 04:41:00;;;;;;;2.0;2.0;;;;;;;7.3;100.0;103370;;;;
2023/02/05 04:42:00;;;;;;;2.0;2.0;;;;;;;7.3;100.0;103370;;;;
2023/02/05 04:43:00;;;;;;;2.0;2.0;;;;;;;7.3;100.0;103370;;;;
2023/02/05 04:44:00;;;;;;;2.0;2.0;;;;;;;7.3;100.0;103370;;;;
2023/02/05 04:45:00;;;;;;;2.0;2.0;;;;;;;7.3;100.0;103370;;;;
2023/02/05 04:46:04;;;;;;;2.0;2.0;;;;;;;7.3;100.0;103370;;;;
2023/02/05 04:47:00;;;;;;;2.0;2.0;;;;;;;7.4;100.0;103370;;;;
2023/02/05 04:48:01;;;;;;;2.0;2.0;;;;;;;7.4;100.0;103370;;;;
2023/02/05 04:49:00;;;;;;;2.0;2.0;;;;;;;7.3;100.0;103370;;;;
2023/02/05 04:50:00;;;;;;;2.0;2.0;;;;;;;7.3;100.0;103370;;;;
2023/02/05 04:51:05;;;;;;;2.0;2.0;;;;;;;7.3;100.0;103360;;;;
2023/02/05 04:52:01;;;;;;;1.5;1.5;;;;;;;7.3;100.0;103360;;;;
2023/02/05 04:53:01;;;;;;;1.5;1.5;;;;;;;7.3;100.0;103370;;;;
2023/02/05 04:54:00;;;;;;;1.5;1.5;;;;;;;7.3;100.0;103370;;;;
2023/02/05 04:55:00;;;;;;;1.5;1.5;;;;;;;7.3;100.0;103360;;;;
2023/02/05 04:56:04;;;;;;;1.5;1.5;;;;;;;7.3;100.0;103360;;;;
2023/02/05 04:57:00;;;;;;;1.5;1.5;;;;;;;7.3;100.0;103370;;;;
2023/02/05 04:58:00;;;;;;;1.5;1.5;;;;;;;7.3;100.0;103370;;;;
2023/02/05 04:59:00;;;;;;;1.5;1.5;;;;;;;7.2;100.0;103360;;;;
2023/02/05 05:00:00;;;;;;;1.5;1.5;;;;;;;7.2;100.0;103360;;;;
2023/02/05 05:01:00;;;;;;;1.5;1.5;;;;;;;7.3;100.0;103360;;;;
2023/02/05 05:02:00;;;;;;;1.5;1.5;;;;;;;7.3;100.0;103360;;;;
2023/02/05 05:03:00;;;;;;;1.5;1.5;;;;;;;7.2;100.0;103370;;;;
2023/02/05 05:04:00;;;;;;;1.5;1.5;;;;;;;7.2;100.0;103370;;;;
2023/02/05 05:05:00;;;;;;;1.5;1.5;;;;;;;7.2;100.0;103370;;;;
2023/02/05 05:06:02;;;;;;;1.5;1.5;;;;;;;7.2;100.0;103370;;;;
2023/02/05 05:07:00;;;;;;;1.5;1.5;;;;;;;7.3;100.0;103370;;;;
2023/02/05 05:08:00;;;;;;;1.5;1.5;;;;;;;7.3;100.0;103370;;;;
2023/02/05 05:09:00;;;;;;;1.5;1.5;;;;;;;7.3;100.0;103370;;;;
2023/02/05 05:10:00;;;;;;;1.5;1.5;;;;;;;7.3;100.0;103370;;;;
2023/02/05 05:11:05;;;;;;;1.5;1.5;;;;;;;7.3;100.0;103370;;;;
2023/02/05 05:12:00;;;;;;;1.3;1.3;;;;;;;7.3;100.0;103370;;;;
2023/02/05 05:13:00;;;;;;;1.3;1.3;;;;;;;7.3;100.0;103370;;;;
2023/02/05 05:14:00;;;;;;;1.3;1.3;;;;;;;7.3;100.0;103370;;;;
2023/02/05 05:15:00;;;;;;;1.3;1.3;;;;;;;7.3;100.0;103360;;;;
2023/02/05 05:16:01;;;;;;;1.3;1.3;;;;;;;7.3;100.0;103360;;;;
2023/02/05 05:17:00;;;;;;;1.3;1.3;;;;;;;7.4;100.0;103370;;;;
2023/02/05 05:18:00;;;;;;;1.3;1.3;;;;;;;7.4;100.0;103370;;;;
2023/02/05 05:19:00;;;;;;;1.3;1.3;;;;;;;7.2;100.0;103370;;;;
2023/02/05 05:20:01;;;;;;;1.3;1.3;;;;;;;7.2;100.0;103370;;;;
2023/02/05 05:21:01;;;;;;;1.3;1.3;;;;;;;7.2;100.0;103370;;;;
2023/02/05 05:22:00;;;;;;;1.3;1.3;;;;;;;7.2;100.0;103370;;;;
2023/02/05 05:23:00;;;;;;;1.3;1.3;;;;;;;7.2;100.0;103370;;;;
2023/02/05 05:24:01;;;;;;;1.3;1.3;;;;;;;7.2;100.0;103370;;;;
2023/02/05 05:25:00;;;;;;;1.3;1.3;;;;;;;7.3;100.0;103370;;;;
2023/02/05 05:26:03;;;;;;;1.3;1.3;;;;;;;7.3;100.0;103370;;;;
2023/02/05 05:27:00;;;;;;;1.3;1.3;;;;;;;7.2;100.0;103370;;;;
2023/02/05 05:28:00;;;;;;;1.3;1.3;;;;;;;7.2;100.0;103370;;;;
2023/02/05 05:29:00;;;;;;;1.3;1.3;;;;;;;7.2;100.0;103370;;;;
2023/02/05 05:30:00;;;;;;;1.3;1.3;;;;;;;7.2;100.0;103370;;;;
2023/02/05 05:31:09;;;;;;;1.3;1.3;;;;;;;7.3;100.0;103370;;;;
2023/02/05 05:32:00;;;;;;;1.4;1.4;;;;;;;7.3;100.0;103370;;;;
2023/02/05 05:33:00;;;;;;;1.4;1.4;;;;;;;7.3;100.0;103360;;;;
2023/02/05 05:34:00;;;;;;;1.4;1.4;;;;;;;7.3;100.0;103360;;;;
2023/02/05 05:35:00;;;;;;;1.4;1.4;;;;;;;7.2;100.0;103360;;;;
2023/02/05 05:36:00;;;;;;;1.4;1.4;;;;;;;7.2;100.0;103360;;;;
2023/02/05 05:37:00;;;;;;;1.4;1.4;;;;;;;7.3;100.0;103360;;;;
2023/02/05 05:38:00;;;;;;;1.4;1.4;;;;;;;7.3;100.0;103360;;;;
2023/02/05 05:43:45;;;;;;;1.4;1.4;;;;;;;7.2;100.0;103360;;;;
2023/02/05 05:44:00;;;;;;;1.4;1.4;;;;;;;7.3;100.0;103360;;;;
2023/02/05 05:45:00;;;;;;;1.4;1.4;;;;;;;7.3;100.0;103360;;;;
2023/02/05 05:46:01;;;;;;;1.4;1.4;;;;;;;7.3;100.0;103360;;;;
2023/02/05 05:47:00;;;;;;;1.4;1.4;;;;;;;7.2;100.0;103360;;;;
2023/02/05 05:48:00;;;;;;;1.4;1.4;;;;;;;7.2;100.0;103360;;;;
2023/02/05 05:49:01;;;;;;;1.4;1.4;;;;;;;7.2;100.0;103350;;;;
2023/02/05 05:50:00;;;;;;;1.4;1.4;;;;;;;7.2;100.0;103350;;;;
2023/02/05 05:51:00;;;;;;;1.4;1.4;;;;;;;7.2;100.0;103360;;;;
2023/02/05 05:52:00;;;;;;;1.5;1.5;;;;;;;7.2;100.0;103360;;;;
2023/02/05 05:53:00;;;;;;;1.5;1.5;;;;;;;7.3;100.0;103360;;;;
2023/02/05 05:54:00;;;;;;;1.5;1.5;;;;;;;7.3;100.0;103360;;;;
2023/02/05 05:55:00;;;;;;;1.5;1.5;;;;;;;7.3;100.0;103360;;;;
2023/02/05 05:56:00;;;;;;;1.5;1.5;;;;;;;7.3;100.0;103360;;;;
2023/02/05 05:57:00;;;;;;;1.5;1.5;;;;;;;7.2;100.0;103350;;;;
2023/02/05 05:58:00;;;;;;;1.5;1.5;;;;;;;7.2;100.0;103350;;;;
2023/02/05 05:59:00;;;;;;;1.5;1.5;;;;;;;7.3;100.0;103350;;;;
2023/02/05 06:00:01;;;;;;;1.5;1.5;;;;;;;7.3;100.0;103350;;;;
2023/02/05 06:01:00;;;;;;;1.5;1.5;;;;;;;7.2;100.0;103350;;;;
2023/02/05 06:02:01;;;;;;;1.5;1.5;;;;;;;7.2;100.0;103350;;;;
2023/02/05 06:03:00;;;;;;;1.5;1.5;;;;;;;7.2;100.0;103350;;;;
2023/02/05 06:04:04;;;;;;;1.5;1.5;;;;;;;7.2;100.0;103350;;;;
2023/02/05 06:05:01;;;;;;;1.5;1.5;;;;;;;7.1;100.0;103340;;;;
2023/02/05 06:06:02;;;;;;;1.5;1.5;;;;;;;7.1;100.0;103340;;;;
2023/02/05 06:07:01;;;;;;;1.5;1.5;;;;;;;7.1;100.0;103340;;;;
2023/02/05 06:08:00;;;;;;;1.5;1.5;;;;;;;7.1;100.0;103340;;;;
2023/02/05 06:09:00;;;;;;;1.5;1.5;;;;;;;7.1;100.0;103350;;;;
2023/02/05 06:10:00;;;;;;;1.5;1.5;;;;;;;7.1;100.0;103350;;;;
2023/02/05 06:11:00;;;;;;;1.5;1.5;;;;;;;7.1;100.0;103340;;;;
2023/02/05 06:12:00;;;;;;;1.4;1.4;;;;;;;7.1;100.0;103340;;;;
2023/02/05 06:13:00;;;;;;;1.4;1.4;;;;;;;7.1;100.0;103340;;;;
2023/02/05 06:14:00;;;;;;;1.4;1.4;;;;;;;7.1;100.0;103340;;;;
2023/02/05 06:15:00;;;;;;;1.4;1.4;;;;;;;7.1;100.0;103340;;;;
2023/02/05 06:16:01;;;;;;;1.4;1.4;;;;;;;7.1;100.0;103340;;;;
2023/02/05 06:17:00;;;;;;;1.4;1.4;;;;;;;7.1;100.0;103330;;;;
2023/02/05 06:18:00;;;;;;;1.4;1.4;;;;;;;7.1;100.0;103330;;;;
2023/02/05 06:19:00;;;;;;;1.4;1.4;;;;;;;7.0;100.0;103340;;;;
2023/02/05 06:20:00;;;;;;;1.4;1.4;;;;;;;7.0;100.0;103340;;;;
2023/02/05 06:21:02;;;;;;;1.4;1.4;;;;;;;7.1;100.0;103340;;;;
2023/02/05 06:22:00;;;;;;;1.4;1.4;;;;;;;7.1;100.0;103340;;;;
2023/02/05 06:23:00;;;;;;;1.4;1.4;;;;;;;7.2;100.0;103340;;;;
2023/02/05 06:24:00;;;;;;;1.4;1.4;;;;;;;7.2;100.0;103340;;;;
2023/02/05 06:25:01;;;;;;;1.4;1.4;;;;;;;7.2;100.0;103350;;;;
2023/02/05 06:26:00;;;;;;;1.4;1.4;;;;;;;7.2;100.0;103350;;;;
2023/02/05 06:27:00;;;;;;;1.4;1.4;;;;;;;7.2;100.0;103340;;;;
2023/02/05 06:28:00;;;;;;;1.4;1.4;;;;;;;7.2;100.0;103340;;;;
2023/02/05 06:29:02;;;;;;;1.4;1.4;;;;;;;7.2;100.0;103340;;;;
2023/02/05 06:30:00;;;;;;;1.4;1.4;;;;;;;7.2;100.0;103340;;;;
2023/02/05 06:31:00;;;;;;;1.4;1.4;;;;;;;7.2;100.0;103350;;;;
2023/02/05 06:32:00;;;;;;;1.4;1.4;;;;;;;7.2;100.0;103350;;;;
2023/02/05 06:33:00;;;;;;;1.4;1.4;;;;;;;7.2;100.0;103350;;;;
2023/02/05 06:34:00;;;;;;;1.4;1.4;;;;;;;7.2;100.0;103350;;;;